Time;durP1;ratioP1;P1;durP2;ratioP2;P2;SDS_P1;SDS_P2;PMS_P1;PMS_P2;Temp;Humidity;BMP_temperature;BMP_pressure;BME280_temperature;BME280_humidity;BME280_pressure;Samples;Min_cycle;Max_cycle;Signal;HPM_P1;HPM_P2
2023/06/07 00:01:14;;;;;;;;;;;12.90;91.70;;;;;;4989261;28;19922;-36
2023/06/07 00:03:41;;;;;;;;;;;12.90;91.60;;;;;;4986289;28;19965;-37
2023/06/07 00:06:08;;;;;;;;;;;12.90;91.80;;;;;;4987017;28;19921;-34
2023/06/07 00:08:35;;;;;;;;;;;12.80;91.80;;;;;;4988583;28;19961;-34
2023/06/07 00:11:03;;;;;;;;;;;12.80;92.30;;;;;;4983691;28;19926;-33
2023/06/07 00:13:30;;;;;;;;;;;12.70;92.00;;;;;;4990031;28;19922;-38
2023/06/07 00:15:57;;;;;;;;;;;12.70;92.30;;;;;;4987861;28;19929;-37
2023/06/07 00:18:24;;;;;;;;;;;12.70;92.50;;;;;;4975523;28;19968;-37
2023/06/07 00:20:52;;;;;;;;;;;12.60;92.20;;;;;;4990304;28;20012;-35
2023/06/07 00:23:20;;;;;;;;;;;12.60;92.40;;;;;;4983073;28;20378;-36
2023/06/07 00:25:47;;;;;;;;;;;12.60;92.30;;;;;;4987358;28;19921;-37
2023/06/07 00:28:15;;;;;;;;;;;12.60;92.30;;;;;;4992082;28;19965;-38
2023/06/07 00:30:41;;;;;;;;;;;12.60;92.60;;;;;;4989908;28;19972;-36
2023/06/07 00:33:08;;;;;;;;;;;12.50;92.70;;;;;;4990995;28;19929;-39
2023/06/07 00:35:35;;;;;;;;;;;12.50;92.90;;;;;;4991459;28;19964;-35
2023/06/07 00:38:01;;;;;;;;;;;12.50;92.60;;;;;;4992743;28;19922;-38
2023/06/07 00:40:28;;;;;;;;;;;12.40;92.50;;;;;;4991181;28;19926;-39
2023/06/07 00:42:55;;;;;;;;;;;12.40;92.50;;;;;;4980823;28;19922;-36
2023/06/07 00:45:23;;;;;;;;;;;12.40;92.50;;;;;;4991182;28;20013;-34
2023/06/07 00:47:49;;;;;;;;;;;12.40;92.40;;;;;;4978837;28;20042;-37
2023/06/07 00:50:16;;;;;;;;;;;12.40;92.40;;;;;;4983914;28;20342;-36
2023/06/07 00:52:42;;;;;;;;;;;12.40;92.40;;;;;;4988193;28;19922;-36
2023/06/07 00:55:09;;;;;;;;;;;12.40;92.50;;;;;;4985628;28;19997;-36
2023/06/07 00:57:36;;;;;;;;;;;12.30;92.40;;;;;;4988563;28;19926;-36
2023/06/07 01:00:04;;;;;;;;;;;12.30;92.50;;;;;;4988262;28;19983;-39
2023/06/07 01:02:33;;;;;;;;;;;12.30;92.80;;;;;;4986048;28;19922;-35
2023/06/07 01:05:02;;;;;;;;;;;12.30;92.80;;;;;;4985331;28;19925;-39
2023/06/07 01:07:29;;;;;;;;;;;12.30;92.60;;;;;;4988720;28;20040;-39
2023/06/07 01:09:56;;;;;;;;;;;12.20;92.70;;;;;;4991191;28;19968;-36
2023/06/07 01:12:22;;;;;;;;;;;12.20;93.20;;;;;;4992545;28;20016;-35
2023/06/07 01:14:49;;;;;;;;;;;12.10;93.40;;;;;;4991891;28;20004;-35
2023/06/07 01:17:16;;;;;;;;;;;12.10;93.60;;;;;;4987031;28;20377;-33
2023/06/07 01:19:45;;;;;;;;;;;12.00;93.40;;;;;;4993345;28;20012;-36
2023/06/07 01:22:12;;;;;;;;;;;12.10;93.30;;;;;;4991991;28;20284;-36
2023/06/07 01:24:42;;;;;;;;;;;12.00;93.70;;;;;;4992055;28;20432;-36
2023/06/07 01:27:10;;;;;;;;;;;12.00;93.50;;;;;;4992121;28;20016;-35
2023/06/07 01:29:36;;;;;;;;;;;12.00;93.70;;;;;;4978323;28;20354;-37
2023/06/07 01:32:04;;;;;;;;;;;12.00;93.80;;;;;;4978432;28;19926;-37
2023/06/07 01:34:30;;;;;;;;;;;12.00;93.90;;;;;;4990350;28;19929;-38
2023/06/07 01:36:57;;;;;;;;;;;11.90;93.80;;;;;;4981202;28;20405;-35
2023/06/07 01:39:24;;;;;;;;;;;12.00;93.80;;;;;;4991970;28;19979;-34
2023/06/07 01:41:52;;;;;;;;;;;11.90;94.10;;;;;;4989039;28;19968;-35
2023/06/07 01:44:19;;;;;;;;;;;12.00;94.10;;;;;;4991923;28;19983;-36
2023/06/07 01:46:45;;;;;;;;;;;12.00;94.20;;;;;;4976772;28;19926;-38
2023/06/07 01:49:12;;;;;;;;;;;12.00;94.30;;;;;;4973508;28;19969;-35
2023/06/07 01:51:39;;;;;;;;;;;12.00;95.00;;;;;;4987554;28;19950;-35
2023/06/07 01:54:06;;;;;;;;;;;11.90;94.90;;;;;;4990995;28;19925;-40
2023/06/07 01:56:38;;;;;;;;;;;12.00;95.10;;;;;;4988360;28;20309;-36
2023/06/07 01:59:08;;;;;;;;;;;12.10;95.10;;;;;;4984206;28;20001;-35
2023/06/07 02:01:37;;;;;;;;;;;12.00;94.90;;;;;;4984071;28;19922;-37
2023/06/07 02:04:04;;;;;;;;;;;12.00;95.10;;;;;;4988824;28;20016;-37
2023/06/07 02:06:31;;;;;;;;;;;11.90;95.30;;;;;;4991212;28;19965;-35
2023/06/07 02:08:58;;;;;;;;;;;11.90;95.30;;;;;;4992182;28;20016;-38
2023/06/07 02:11:25;;;;;;;;;;;12.00;95.70;;;;;;4989703;28;20012;-35
2023/06/07 02:13:52;;;;;;;;;;;12.00;95.50;;;;;;4989566;28;20267;-34
2023/06/07 02:16:32;;;;;;;;;;;11.90;95.40;;;;;;4986629;28;19980;-37
2023/06/07 02:18:59;;;;;;;;;;;12.00;95.60;;;;;;4985352;28;20337;-35
2023/06/07 02:21:26;;;;;;;;;;;11.90;96.20;;;;;;4985603;28;19926;-33
2023/06/07 02:23:52;;;;;;;;;;;11.90;96.00;;;;;;4991135;28;20437;-38
2023/06/07 02:26:20;;;;;;;;;;;11.90;95.80;;;;;;4990955;28;20283;-35
2023/06/07 02:28:46;;;;;;;;;;;11.90;96.00;;;;;;4987187;28;19929;-35
2023/06/07 02:31:13;;;;;;;;;;;11.90;96.00;;;;;;4989942;28;19976;-35
2023/06/07 02:33:41;;;;;;;;;;;11.90;96.00;;;;;;4982472;28;20369;-36
2023/06/07 02:36:08;;;;;;;;;;;11.90;96.30;;;;;;4990501;28;20271;-38
2023/06/07 02:38:34;;;;;;;;;;;11.90;96.30;;;;;;4983603;28;19976;-35
2023/06/07 02:41:01;;;;;;;;;;;11.90;96.20;;;;;;4992004;28;20301;-35
2023/06/07 02:43:28;;;;;;;;;;;11.90;96.40;;;;;;4990229;28;20021;-36
2023/06/07 02:45:54;;;;;;;;;;;11.90;96.60;;;;;;4989181;28;20029;-37
2023/06/07 02:48:21;;;;;;;;;;;11.90;96.50;;;;;;4989368;28;20020;-37
2023/06/07 02:50:49;;;;;;;;;;;11.90;96.90;;;;;;4989622;28;19922;-33
2023/06/07 02:53:16;;;;;;;;;;;11.90;96.90;;;;;;4988828;28;19929;-36
2023/06/07 02:55:43;;;;;;;;;;;11.90;96.90;;;;;;4978555;28;20223;-40
2023/06/07 02:58:09;;;;;;;;;;;11.90;97.30;;;;;;4981862;28;19968;-38
2023/06/07 03:00:36;;;;;;;;;;;11.90;97.30;;;;;;4985696;28;20438;-36
2023/06/07 03:03:05;;;;;;;;;;;11.90;97.50;;;;;;4983991;28;20389;-39
2023/06/07 03:05:31;;;;;;;;;;;11.90;97.20;;;;;;4990910;28;19922;-35
2023/06/07 03:08:00;;;;;;;;;;;11.90;97.60;;;;;;4987873;28;20031;-37
2023/06/07 03:10:27;;;;;;;;;;;11.90;97.50;;;;;;4982307;28;19925;-37
2023/06/07 03:12:53;;;;;;;;;;;11.90;97.90;;;;;;4986007;28;19977;-38
2023/06/07 03:15:20;;;;;;;;;;;11.80;97.60;;;;;;4980033;28;19950;-35
2023/06/07 03:17:47;;;;;;;;;;;11.90;97.60;;;;;;4981443;28;19922;-37
2023/06/07 03:20:14;;;;;;;;;;;11.90;98.00;;;;;;4980197;28;19925;-36
2023/06/07 03:22:40;;;;;;;;;;;11.90;98.20;;;;;;4988600;28;19975;-35
2023/06/07 03:25:09;;;;;;;;;;;11.90;97.80;;;;;;4993780;28;20325;-35
2023/06/07 03:27:35;;;;;;;;;;;11.90;97.80;;;;;;4989520;28;19989;-33
2023/06/07 03:30:02;;;;;;;;;;;11.90;97.80;;;;;;4991650;28;20042;-36
2023/06/07 03:32:28;;;;;;;;;;;11.90;97.90;;;;;;4979531;28;19922;-38
2023/06/07 03:34:55;;;;;;;;;;;12.00;98.00;;;;;;4991888;28;19922;-34
2023/06/07 03:37:22;;;;;;;;;;;12.00;98.20;;;;;;4984147;28;19951;-34
2023/06/07 03:39:48;;;;;;;;;;;12.00;97.90;;;;;;4988837;28;19961;-37
2023/06/07 03:42:16;;;;;;;;;;;12.00;98.10;;;;;;4985649;28;20422;-34
2023/06/07 03:44:43;;;;;;;;;;;12.10;98.10;;;;;;4995021;28;19973;-34
2023/06/07 03:47:10;;;;;;;;;;;12.10;98.20;;;;;;4980686;28;19922;-34
2023/06/07 03:49:36;;;;;;;;;;;12.10;98.50;;;;;;4978260;28;19972;-35
2023/06/07 03:52:03;;;;;;;;;;;12.10;99.00;;;;;;4988474;28;19922;-35
2023/06/07 03:54:30;;;;;;;;;;;12.10;98.70;;;;;;4985542;28;19930;-35
2023/06/07 03:56:57;;;;;;;;;;;12.10;99.00;;;;;;4993089;28;19929;-36
2023/06/07 03:59:26;;;;;;;;;;;12.10;99.40;;;;;;4989364;28;19993;-34
2023/06/07 04:01:52;;;;;;;;;;;12.10;99.20;;;;;;4976289;28;20028;-36
2023/06/07 04:04:19;;;;;;;;;;;12.10;99.50;;;;;;4987537;28;19953;-37
2023/06/07 04:06:46;;;;;;;;;;;12.10;99.90;;;;;;4986601;28;19921;-35
2023/06/07 04:09:15;;;;;;;;;;;12.10;99.90;;;;;;4991452;28;20043;-36
2023/06/07 04:11:42;;;;;;;;;;;12.10;99.90;;;;;;4988905;28;19922;-36
2023/06/07 04:14:08;;;;;;;;;;;12.10;99.90;;;;;;4990696;28;19992;-36
2023/06/07 04:16:36;;;;;;;;;;;12.10;99.90;;;;;;4979957;28;20012;-37
2023/06/07 04:19:03;;;;;;;;;;;12.10;99.90;;;;;;4992220;28;19992;-36
2023/06/07 04:21:29;;;;;;;;;;;12.10;99.90;;;;;;4990775;28;19980;-35
2023/06/07 04:23:56;;;;;;;;;;;12.10;99.90;;;;;;4990188;28;19961;-39
2023/06/07 04:26:23;;;;;;;;;;;12.20;99.90;;;;;;4989419;28;19922;-35
2023/06/07 04:28:50;;;;;;;;;;;12.20;99.90;;;;;;4989663;28;20342;-37
2023/06/07 04:31:17;;;;;;;;;;;12.30;99.90;;;;;;4993144;28;20278;-37
2023/06/07 04:33:47;;;;;;;;;;;12.30;99.90;;;;;;4993777;28;19984;-36
2023/06/07 04:36:14;;;;;;;;;;;12.30;99.90;;;;;;4981773;28;19928;-37
2023/06/07 04:38:41;;;;;;;;;;;12.40;99.90;;;;;;4991417;28;20004;-38
2023/06/07 04:41:08;;;;;;;;;;;12.40;99.90;;;;;;4991837;28;20036;-32
2023/06/07 04:43:36;;;;;;;;;;;12.30;99.90;;;;;;4982621;28;19921;-38
2023/06/07 04:46:03;;;;;;;;;;;12.50;99.90;;;;;;4983884;28;20421;-39
2023/06/07 04:48:31;;;;;;;;;;;12.50;99.90;;;;;;4991741;28;19976;-39
2023/06/07 04:51:03;;;;;;;;;;;12.50;99.90;;;;;;4987916;28;19972;-35
2023/06/07 04:53:36;;;;;;;;;;;12.60;99.90;;;;;;4983323;28;19929;-36
2023/06/07 04:56:02;;;;;;;;;;;12.60;99.90;;;;;;4999428;28;20374;-41
2023/06/07 04:58:29;;;;;;;;;;;12.60;99.90;;;;;;4991422;28;19999;-37
2023/06/07 05:00:56;;;;;;;;;;;12.60;99.90;;;;;;4989406;28;20481;-37
2023/06/07 05:03:24;;;;;;;;;;;12.70;99.90;;;;;;4984949;28;19929;-35
2023/06/07 05:05:51;;;;;;;;;;;12.60;99.90;;;;;;4981614;28;19928;-40
2023/06/07 05:08:19;;;;;;;;;;;12.70;99.90;;;;;;4982752;28;20473;-38
2023/06/07 05:10:46;;;;;;;;;;;12.70;99.90;;;;;;4992755;28;19932;-34
2023/06/07 05:13:13;;;;;;;;;;;12.80;99.90;;;;;;4980818;28;20377;-36
2023/06/07 05:15:40;;;;;;;;;;;12.80;99.90;;;;;;4987445;28;20000;-36
2023/06/07 05:18:07;;;;;;;;;;;12.90;99.90;;;;;;4991746;28;19936;-35
2023/06/07 05:20:34;;;;;;;;;;;12.90;99.90;;;;;;4991047;28;19930;-38
2023/06/07 05:23:02;;;;;;;;;;;13.00;99.90;;;;;;4991757;28;20384;-36
2023/06/07 05:25:31;;;;;;;;;;;13.10;99.90;;;;;;4992009;28;19926;-35
2023/06/07 05:27:57;;;;;;;;;;;13.10;99.90;;;;;;4973607;28;20397;-38
2023/06/07 05:30:24;;;;;;;;;;;13.20;99.90;;;;;;4992307;28;20100;-37
2023/06/07 05:32:51;;;;;;;;;;;13.20;99.90;;;;;;4992658;28;19921;-37
2023/06/07 05:35:18;;;;;;;;;;;13.20;99.90;;;;;;4979484;28;19930;-40
2023/06/07 05:37:45;;;;;;;;;;;13.20;99.90;;;;;;4973868;28;19929;-39
2023/06/07 05:40:15;;;;;;;;;;;13.20;99.90;;;;;;4991419;28;19925;-35
2023/06/07 05:42:43;;;;;;;;;;;13.30;99.90;;;;;;4990237;28;19922;-40
2023/06/07 05:45:10;;;;;;;;;;;13.30;99.90;;;;;;4992305;28;19976;-33
2023/06/07 05:47:37;;;;;;;;;;;13.30;99.90;;;;;;4993275;28;20068;-32
2023/06/07 05:50:04;;;;;;;;;;;13.40;99.90;;;;;;4992283;28;20338;-39
2023/06/07 05:52:30;;;;;;;;;;;13.50;99.90;;;;;;4993039;28;20345;-36
2023/06/07 05:54:58;;;;;;;;;;;13.60;99.90;;;;;;4991877;28;19968;-38
2023/06/07 05:57:25;;;;;;;;;;;13.60;99.90;;;;;;4993385;28;19921;-38
2023/06/07 05:59:53;;;;;;;;;;;13.70;99.90;;;;;;4990375;28;20417;-36
2023/06/07 06:02:20;;;;;;;;;;;13.80;99.90;;;;;;4993097;28;20365;-37
2023/06/07 06:04:47;;;;;;;;;;;13.90;99.90;;;;;;4993125;28;19921;-38
2023/06/07 06:07:15;;;;;;;;;;;13.90;99.90;;;;;;4992285;28;19928;-39
2023/06/07 06:09:42;;;;;;;;;;;14.00;99.90;;;;;;4991873;28;19933;-34
2023/06/07 06:12:09;;;;;;;;;;;14.10;99.90;;;;;;4992265;28;19976;-36
2023/06/07 06:14:36;;;;;;;;;;;14.20;99.90;;;;;;4992091;28;19933;-37
2023/06/07 06:17:04;;;;;;;;;;;14.30;99.90;;;;;;4991953;28;20022;-37
2023/06/07 06:19:31;;;;;;;;;;;14.30;99.90;;;;;;4992935;28;19925;-39
2023/06/07 06:21:57;;;;;;;;;;;14.40;99.90;;;;;;4992981;28;19921;-37
2023/06/07 06:24:24;;;;;;;;;;;14.40;99.90;;;;;;4992815;28;20025;-39
2023/06/07 06:26:51;;;;;;;;;;;14.40;99.90;;;;;;4992938;28;19928;-36
2023/06/07 06:29:18;;;;;;;;;;;14.40;99.90;;;;;;4992380;28;20298;-36
2023/06/07 06:31:44;;;;;;;;;;;14.30;99.90;;;;;;4991646;28;20377;-36
2023/06/07 06:34:13;;;;;;;;;;;14.30;99.90;;;;;;4991787;28;20392;-37
2023/06/07 06:36:39;;;;;;;;;;;14.30;99.90;;;;;;4992793;28;19928;-37
2023/06/07 06:39:07;;;;;;;;;;;14.40;99.90;;;;;;4992001;28;20394;-41
2023/06/07 06:41:34;;;;;;;;;;;14.40;99.90;;;;;;4994333;28;19925;-34
2023/06/07 06:44:01;;;;;;;;;;;14.50;99.90;;;;;;4977206;28;20127;-39
2023/06/07 06:46:27;;;;;;;;;;;14.60;99.90;;;;;;4976989;28;20378;-39
2023/06/07 06:48:54;;;;;;;;;;;14.60;99.90;;;;;;4976950;28;19966;-36
2023/06/07 06:51:22;;;;;;;;;;;14.70;99.90;;;;;;4976292;28;19922;-36
2023/06/07 06:53:49;;;;;;;;;;;14.70;99.90;;;;;;4975302;28;19922;-41
2023/06/07 06:56:15;;;;;;;;;;;14.70;99.90;;;;;;4976889;28;20342;-37
2023/06/07 06:58:42;;;;;;;;;;;14.80;99.90;;;;;;4976972;28;20270;-37
2023/06/07 07:01:08;;;;;;;;;;;14.90;99.90;;;;;;4988521;28;19929;-42
2023/06/07 07:03:38;;;;;;;;;;;15.00;99.90;;;;;;4995220;28;20004;-40
2023/06/07 07:06:04;;;;;;;;;;;15.10;99.90;;;;;;4996342;28;19928;-40
2023/06/07 07:08:33;;;;;;;;;;;15.20;99.90;;;;;;4996056;28;20368;-40
2023/06/07 07:10:59;;;;;;;;;;;15.40;99.90;;;;;;4995148;28;19933;-37
2023/06/07 07:13:26;;;;;;;;;;;15.60;99.90;;;;;;4995066;28;20405;-41
2023/06/07 07:15:53;;;;;;;;;;;15.80;99.90;;;;;;4995903;28;19961;-40
2023/06/07 07:18:20;;;;;;;;;;;16.00;99.90;;;;;;4994828;28;19926;-37
2023/06/07 07:20:46;;;;;;;;;;;16.10;99.90;;;;;;4994662;28;20009;-38
2023/06/07 07:23:13;;;;;;;;;;;16.20;99.90;;;;;;4994989;28;19928;-40
2023/06/07 07:25:41;;;;;;;;;;;16.20;99.90;;;;;;4995052;28;19968;-40
2023/06/07 07:28:08;;;;;;;;;;;16.30;99.90;;;;;;4995632;28;19921;-41
2023/06/07 07:30:34;;;;;;;;;;;16.20;99.90;;;;;;4994012;28;20025;-40
2023/06/07 07:33:01;;;;;;;;;;;16.30;99.90;;;;;;4994953;28;20376;-42
2023/06/07 07:35:27;;;;;;;;;;;16.40;99.90;;;;;;4994404;28;19928;-42
2023/06/07 07:37:54;;;;;;;;;;;16.60;99.90;;;;;;4994780;28;19965;-41
2023/06/07 07:40:21;;;;;;;;;;;16.70;99.90;;;;;;4994229;28;20380;-41
2023/06/07 07:42:49;;;;;;;;;;;16.90;99.90;;;;;;4982346;28;19922;-43
2023/06/07 07:45:16;;;;;;;;;;;17.10;99.90;;;;;;4975992;28;20025;-41
2023/06/07 07:47:42;;;;;;;;;;;17.30;99.90;;;;;;4974898;28;20035;-40
2023/06/07 07:50:10;;;;;;;;;;;17.60;99.90;;;;;;4990444;28;19965;-42
2023/06/07 07:52:36;;;;;;;;;;;17.70;99.90;;;;;;4995357;28;19925;-40
2023/06/07 07:55:03;;;;;;;;;;;17.90;99.90;;;;;;4994179;28;19921;-40
2023/06/07 07:57:30;;;;;;;;;;;18.00;99.80;;;;;;4995363;28;20279;-41
2023/06/07 07:59:58;;;;;;;;;;;17.90;98.70;;;;;;4995175;28;19926;-39
2023/06/07 08:02:25;;;;;;;;;;;18.00;99.40;;;;;;4994971;28;20031;-41
2023/06/07 08:04:53;;;;;;;;;;;18.10;98.90;;;;;;4994090;28;19928;-41
2023/06/07 08:07:19;;;;;;;;;;;18.30;99.20;;;;;;4994136;28;20348;-41
2023/06/07 08:09:46;;;;;;;;;;;18.50;98.90;;;;;;4995137;28;20362;-39
2023/06/07 08:12:13;;;;;;;;;;;18.70;98.60;;;;;;4994626;28;19922;-42
2023/06/07 08:14:39;;;;;;;;;;;19.00;98.50;;;;;;4994981;28;20346;-42
2023/06/07 08:17:07;;;;;;;;;;;19.10;98.00;;;;;;4994942;28;19922;-43
2023/06/07 08:19:34;;;;;;;;;;;19.20;97.20;;;;;;4992177;28;20489;-43
2023/06/07 08:22:01;;;;;;;;;;;19.40;97.10;;;;;;4994003;28;19947;-43
2023/06/07 08:24:27;;;;;;;;;;;19.50;97.50;;;;;;4993721;28;19968;-42
2023/06/07 08:26:54;;;;;;;;;;;19.70;96.70;;;;;;4993774;28;19969;-43
2023/06/07 08:29:21;;;;;;;;;;;19.70;95.80;;;;;;4994619;28;20372;-42
2023/06/07 08:31:48;;;;;;;;;;;19.80;96.30;;;;;;4993397;28;19922;-43
2023/06/07 08:34:16;;;;;;;;;;;19.90;95.80;;;;;;4993535;28;19977;-40
2023/06/07 08:36:43;;;;;;;;;;;20.00;95.10;;;;;;4993567;28;20396;-42
2023/06/07 08:39:10;;;;;;;;;;;20.10;94.90;;;;;;4993542;28;19932;-41
2023/06/07 08:41:36;;;;;;;;;;;20.20;96.00;;;;;;4991942;28;20446;-41
2023/06/07 08:44:03;;;;;;;;;;;20.40;94.90;;;;;;4974974;28;20024;-43
2023/06/07 08:46:31;;;;;;;;;;;20.50;95.30;;;;;;4974768;28;19984;-42
2023/06/07 08:48:58;;;;;;;;;;;20.70;95.10;;;;;;4978943;28;19921;-41
2023/06/07 08:51:26;;;;;;;;;;;20.80;94.60;;;;;;4993583;28;20325;-43
2023/06/07 08:53:55;;;;;;;;;;;20.90;94.40;;;;;;4994413;28;19973;-43
2023/06/07 08:56:23;;;;;;;;;;;21.00;94.70;;;;;;4994106;28;19929;-43
2023/06/07 08:58:50;;;;;;;;;;;21.10;94.60;;;;;;4994645;28;20387;-41
2023/06/07 09:01:16;;;;;;;;;;;21.20;92.80;;;;;;4993949;28;19961;-42
2023/06/07 09:03:43;;;;;;;;;;;21.20;93.70;;;;;;4992419;28;19929;-39
2023/06/07 09:06:10;;;;;;;;;;;21.40;93.20;;;;;;4993897;28;19930;-41
2023/06/07 09:08:38;;;;;;;;;;;21.50;93.60;;;;;;4993102;28;19945;-42
2023/06/07 09:11:04;;;;;;;;;;;21.70;94.00;;;;;;4993944;28;19928;-44
2023/06/07 09:13:32;;;;;;;;;;;21.90;92.90;;;;;;4993718;28;20352;-41
2023/06/07 09:16:00;;;;;;;;;;;22.00;92.50;;;;;;4993680;28;19980;-42
2023/06/07 09:18:30;;;;;;;;;;;22.20;92.60;;;;;;4991944;28;19922;-39
2023/06/07 09:20:56;;;;;;;;;;;22.20;92.10;;;;;;5008920;28;20436;-43
2023/06/07 09:23:23;;;;;;;;;;;22.30;90.90;;;;;;4992820;28;19969;-43
2023/06/07 09:25:54;;;;;;;;;;;22.30;90.60;;;;;;4993019;28;19922;-44
2023/06/07 09:28:20;;;;;;;;;;;22.40;91.50;;;;;;4993516;28;19930;-43
2023/06/07 09:30:54;;;;;;;;;;;22.50;90.50;;;;;;4993684;28;20011;-43
2023/06/07 09:33:28;;;;;;;;;;;22.50;91.00;;;;;;4993396;28;19969;-44
2023/06/07 09:36:04;;;;;;;;;;;22.70;90.80;;;;;;4992552;28;19922;-44
2023/06/07 09:38:32;;;;;;;;;;;22.80;90.60;;;;;;4993380;28;19965;-44
2023/06/07 09:41:01;;;;;;;;;;;22.80;89.90;;;;;;4992396;28;19921;-41
2023/06/07 09:43:28;;;;;;;;;;;23.00;89.50;;;;;;4975681;28;20374;-43
2023/06/07 09:45:54;;;;;;;;;;;23.00;88.60;;;;;;4973907;28;19926;-42
2023/06/07 09:48:21;;;;;;;;;;;23.20;90.10;;;;;;4973138;28;19922;-44
2023/06/07 09:50:57;;;;;;;;;;;23.20;90.10;;;;;;4991058;28;19969;-38
2023/06/07 09:53:24;;;;;;;;;;;23.50;90.00;;;;;;4991922;28;19928;-42
2023/06/07 09:55:50;;;;;;;;;;;23.60;90.30;;;;;;4991822;28;19926;-44
2023/06/07 09:58:22;;;;;;;;;;;23.80;90.10;;;;;;4993311;28;19976;-45
2023/06/07 10:00:49;;;;;;;;;;;24.00;90.10;;;;;;4993033;28;19922;-44
2023/06/07 10:03:15;;;;;;;;;;;24.20;88.40;;;;;;4993127;28;20016;-41
2023/06/07 10:05:42;;;;;;;;;;;24.20;87.10;;;;;;4993033;28;19921;-44
2023/06/07 10:08:09;;;;;;;;;;;24.30;87.70;;;;;;4993194;28;19968;-44
2023/06/07 10:10:36;;;;;;;;;;;24.30;87.50;;;;;;4993023;28;20402;-43
2023/06/07 10:13:03;;;;;;;;;;;24.50;86.60;;;;;;4993085;28;19921;-34
2023/06/07 10:15:32;;;;;;;;;;;24.60;86.50;;;;;;4996905;28;19965;-34
2023/06/07 10:17:59;;;;;;;;;;;24.70;84.70;;;;;;4995981;28;19929;-33
2023/06/07 10:20:25;;;;;;;;;;;24.70;83.10;;;;;;4996314;28;20361;-34
2023/06/07 10:22:57;;;;;;;;;;;24.60;82.60;;;;;;4995863;28;19922;-33
2023/06/07 10:25:24;;;;;;;;;;;24.60;82.70;;;;;;4995806;28;19995;-35
2023/06/07 10:27:52;;;;;;;;;;;24.60;84.00;;;;;;4995742;28;19926;-35
2023/06/07 10:30:19;;;;;;;;;;;24.80;85.30;;;;;;4996491;28;20452;-33
2023/06/07 10:32:47;;;;;;;;;;;25.00;80.80;;;;;;4996913;28;19965;-35
2023/06/07 10:35:13;;;;;;;;;;;25.10;81.70;;;;;;4995659;28;19922;-34
2023/06/07 10:37:40;;;;;;;;;;;25.20;80.60;;;;;;4996675;28;19921;-35
2023/06/07 10:40:10;;;;;;;;;;;25.40;81.90;;;;;;4996481;28;20286;-36
2023/06/07 10:42:37;;;;;;;;;;;25.50;82.40;;;;;;4995657;28;20005;-34
2023/06/07 10:45:03;;;;;;;;;;;25.70;81.80;;;;;;4995557;28;19969;-35
2023/06/07 10:47:30;;;;;;;;;;;25.80;81.40;;;;;;4996641;28;19992;-35
2023/06/07 10:49:58;;;;;;;;;;;26.00;81.80;;;;;;4995704;28;19964;-35
2023/06/07 10:52:26;;;;;;;;;;;26.20;80.90;;;;;;4995187;28;19921;-35
2023/06/07 10:54:53;;;;;;;;;;;26.30;76.90;;;;;;4995555;28;19921;-35
2023/06/07 10:57:32;;;;;;;;;;;26.20;78.90;;;;;;4996311;28;20012;-34
2023/06/07 11:00:14;;;;;;;;;;;26.20;77.40;;;;;;4995025;28;19925;-34
2023/06/07 11:02:40;;;;;;;;;;;26.10;76.70;;;;;;4995886;28;20158;-35
2023/06/07 11:05:08;;;;;;;;;;;26.10;78.60;;;;;;4995411;28;19973;-35
2023/06/07 11:07:41;;;;;;;;;;;26.10;76.90;;;;;;4996294;28;20293;-34
2023/06/07 11:10:26;;;;;;;;;;;26.10;77.50;;;;;;4995334;28;20365;-35
2023/06/07 11:12:57;;;;;;;;;;;26.10;78.00;;;;;;4994745;28;19969;-35
2023/06/07 11:15:30;;;;;;;;;;;26.20;76.80;;;;;;4994954;28;20267;-35
2023/06/07 11:17:57;;;;;;;;;;;26.30;78.10;;;;;;4995814;28;19921;-34
2023/06/07 11:20:44;;;;;;;;;;;26.40;77.60;;;;;;4995040;28;20404;-35
2023/06/07 11:23:27;;;;;;;;;;;26.40;75.30;;;;;;4995874;28;19925;-35
2023/06/07 11:25:55;;;;;;;;;;;26.30;76.80;;;;;;4991494;28;20471;-35
2023/06/07 11:28:22;;;;;;;;;;;26.40;76.70;;;;;;4995485;28;19922;-35
2023/06/07 11:30:49;;;;;;;;;;;26.50;75.80;;;;;;4991829;28;19937;-36
2023/06/07 11:33:16;;;;;;;;;;;26.60;75.30;;;;;;4987536;28;19972;-35
2023/06/07 11:35:43;;;;;;;;;;;26.60;75.40;;;;;;4994345;28;19921;-36
2023/06/07 11:38:09;;;;;;;;;;;26.60;73.60;;;;;;4995405;28;19941;-36
2023/06/07 11:40:37;;;;;;;;;;;26.60;73.30;;;;;;4995412;28;19922;-35
2023/06/07 11:43:04;;;;;;;;;;;26.70;75.60;;;;;;4993040;28;20004;-35
2023/06/07 11:45:31;;;;;;;;;;;26.80;74.40;;;;;;4994115;28;19936;-36
2023/06/07 11:47:58;;;;;;;;;;;27.00;75.00;;;;;;4994553;28;19976;-36
2023/06/07 11:50:25;;;;;;;;;;;27.00;73.10;;;;;;4989908;28;19921;-35
2023/06/07 11:52:52;;;;;;;;;;;27.00;73.90;;;;;;4993058;28;20016;-34
2023/06/07 11:55:19;;;;;;;;;;;27.00;72.50;;;;;;4990865;28;19968;-35
2023/06/07 11:57:48;;;;;;;;;;;27.00;74.60;;;;;;4976797;28;19929;-35
2023/06/07 12:00:15;;;;;;;;;;;27.10;73.40;;;;;;4975853;28;20290;-36
2023/06/07 12:02:42;;;;;;;;;;;27.10;72.30;;;;;;4975527;28;20020;-35
2023/06/07 12:05:10;;;;;;;;;;;27.10;73.20;;;;;;4974851;28;19992;-35
2023/06/07 12:07:38;;;;;;;;;;;27.00;72.20;;;;;;4975513;28;19921;-36
2023/06/07 12:10:05;;;;;;;;;;;27.00;71.60;;;;;;4974587;28;19925;-35
2023/06/07 12:12:32;;;;;;;;;;;27.00;73.10;;;;;;4978711;28;19929;-35
2023/06/07 12:15:03;;;;;;;;;;;27.20;74.40;;;;;;4992075;28;19922;-34
2023/06/07 12:17:34;;;;;;;;;;;27.40;72.60;;;;;;4994806;28;19971;-36
2023/06/07 12:20:08;;;;;;;;;;;27.50;74.20;;;;;;4993949;28;19926;-35
2023/06/07 12:22:35;;;;;;;;;;;27.70;71.30;;;;;;4994249;28;19922;-34
2023/06/07 12:25:09;;;;;;;;;;;27.90;68.70;;;;;;4992473;28;20012;-35
2023/06/07 12:27:36;;;;;;;;;;;27.70;70.70;;;;;;4994759;28;19921;-35
2023/06/07 12:30:05;;;;;;;;;;;27.60;69.30;;;;;;4994596;28;19922;-36
2023/06/07 12:32:32;;;;;;;;;;;27.60;71.30;;;;;;4993343;28;19968;-35
2023/06/07 12:35:02;;;;;;;;;;;27.60;72.20;;;;;;4993477;28;19921;-35
2023/06/07 12:37:29;;;;;;;;;;;27.80;72.40;;;;;;4992312;28;20288;-36
2023/06/07 12:39:55;;;;;;;;;;;28.10;67.80;;;;;;4992368;28;19969;-35
2023/06/07 12:42:22;;;;;;;;;;;28.20;70.00;;;;;;4994460;28;20416;-35
2023/06/07 12:44:50;;;;;;;;;;;28.40;68.80;;;;;;4994457;28;20013;-35
2023/06/07 12:47:18;;;;;;;;;;;28.50;68.40;;;;;;4993314;28;19925;-36
2023/06/07 12:49:45;;;;;;;;;;;28.60;67.90;;;;;;4993273;28;20292;-35
2023/06/07 12:52:11;;;;;;;;;;;28.70;70.00;;;;;;4993938;28;20012;-34
2023/06/07 12:54:38;;;;;;;;;;;28.80;68.80;;;;;;4993198;28;19976;-36
2023/06/07 12:57:05;;;;;;;;;;;28.90;69.90;;;;;;4993946;28;20128;-35
2023/06/07 12:59:32;;;;;;;;;;;29.00;68.00;;;;;;4992209;28;19925;-35
2023/06/07 13:01:59;;;;;;;;;;;28.90;69.80;;;;;;4989202;28;19980;-35
2023/06/07 13:04:27;;;;;;;;;;;29.00;69.30;;;;;;4993159;28;19925;-36
2023/06/07 13:06:53;;;;;;;;;;;29.20;68.60;;;;;;4992909;28;20035;-36
2023/06/07 13:09:20;;;;;;;;;;;29.20;66.40;;;;;;4993612;28;19979;-35
2023/06/07 13:11:48;;;;;;;;;;;29.10;68.00;;;;;;4991723;28;20349;-35
2023/06/07 13:14:15;;;;;;;;;;;29.00;64.60;;;;;;4981367;28;19977;-35
2023/06/07 13:16:43;;;;;;;;;;;28.90;67.40;;;;;;4993415;28;20024;-36
2023/06/07 13:19:10;;;;;;;;;;;29.10;68.60;;;;;;4993545;28;19921;-36
2023/06/07 13:21:38;;;;;;;;;;;29.20;66.10;;;;;;4993713;28;20374;-36
2023/06/07 13:24:05;;;;;;;;;;;29.20;65.30;;;;;;4992699;28;20288;-36
2023/06/07 13:26:32;;;;;;;;;;;29.10;65.90;;;;;;4992313;28;19933;-35
2023/06/07 13:28:58;;;;;;;;;;;29.00;66.20;;;;;;4993544;28;20002;-34
2023/06/07 13:31:26;;;;;;;;;;;29.00;66.80;;;;;;4993528;28;20000;-35
2023/06/07 13:33:52;;;;;;;;;;;28.90;64.60;;;;;;4993394;28;19921;-35
2023/06/07 13:36:19;;;;;;;;;;;28.90;64.70;;;;;;4984691;28;19921;-36
2023/06/07 13:38:48;;;;;;;;;;;28.90;64.30;;;;;;4973068;28;20394;-35
2023/06/07 13:41:15;;;;;;;;;;;28.80;63.60;;;;;;4974683;28;20421;-36
2023/06/07 13:43:41;;;;;;;;;;;28.70;64.10;;;;;;4990334;28;19926;-36
2023/06/07 13:46:08;;;;;;;;;;;28.70;65.70;;;;;;4975616;28;19951;-35
2023/06/07 13:48:39;;;;;;;;;;;28.70;65.30;;;;;;4976782;28;19922;-34
2023/06/07 13:51:08;;;;;;;;;;;28.70;65.50;;;;;;4991675;28;19928;-35
2023/06/07 13:53:34;;;;;;;;;;;28.70;64.10;;;;;;4992982;28;19921;-35
2023/06/07 13:56:02;;;;;;;;;;;28.70;65.30;;;;;;4993057;28;19925;-35
2023/06/07 13:58:32;;;;;;;;;;;28.80;66.20;;;;;;4992081;28;20397;-36
2023/06/07 14:01:00;;;;;;;;;;;29.00;65.10;;;;;;4987326;28;19929;-35
2023/06/07 14:03:27;;;;;;;;;;;29.10;66.60;;;;;;4989347;28;20019;-35
2023/06/07 14:05:53;;;;;;;;;;;29.20;66.00;;;;;;4993121;28;19977;-36
2023/06/07 14:08:20;;;;;;;;;;;29.30;63.70;;;;;;4993022;28;19957;-36
2023/06/07 14:10:47;;;;;;;;;;;29.30;66.30;;;;;;4991840;28;20301;-35
2023/06/07 14:13:16;;;;;;;;;;;29.40;65.70;;;;;;4989993;28;20036;-36
2023/06/07 14:15:42;;;;;;;;;;;29.40;65.20;;;;;;4973653;28;19933;-36
2023/06/07 14:18:09;;;;;;;;;;;29.30;64.20;;;;;;4972162;28;19981;-35